sensor_id;sensor_type;location;lat;lon;timestamp;P1;durP1;ratioP1;P2;durP2;ratioP2
26696;SDS011;14312;52.614;13.496;2023-10-31T00:01:28;2.53;;;2.10;;
26696;SDS011;14312;52.614;13.496;2023-10-31T00:04:14;2.38;;;2.08;;
26696;SDS011;14312;52.614;13.496;2023-10-31T00:07:00;2.17;;;1.98;;
26696;SDS011;14312;52.614;13.496;2023-10-31T00:09:46;2.58;;;2.08;;
26696;SDS011;14312;52.614;13.496;2023-10-31T00:12:32;2.40;;;2.00;;
26696;SDS011;14312;52.614;13.496;2023-10-31T00:15:19;3.40;;;2.63;;
26696;SDS011;14312;52.614;13.496;2023-10-31T00:18:05;2.22;;;1.80;;
26696;SDS011;14312;52.614;13.496;2023-10-31T00:20:51;2.20;;;2.00;;
26696;SDS011;14312;52.614;13.496;2023-10-31T00:23:47;2.65;;;1.98;;
26696;SDS011;14312;52.614;13.496;2023-10-31T00:26:34;2.50;;;2.08;;
26696;SDS011;14312;52.614;13.496;2023-10-31T00:29:20;3.40;;;2.35;;
26696;SDS011;14312;52.614;13.496;2023-10-31T00:32:06;2.88;;;2.58;;
26696;SDS011;14312;52.614;13.496;2023-10-31T00:34:52;2.83;;;2.58;;
26696;SDS011;14312;52.614;13.496;2023-10-31T00:37:38;2.97;;;2.70;;
26696;SDS011;14312;52.614;13.496;2023-10-31T00:40:25;3.30;;;3.00;;
26696;SDS011;14312;52.614;13.496;2023-10-31T00:43:12;3.42;;;3.08;;
26696;SDS011;14312;52.614;13.496;2023-10-31T00:45:58;3.75;;;3.15;;
26696;SDS011;14312;52.614;13.496;2023-10-31T00:48:44;3.70;;;3.30;;
26696;SDS011;14312;52.614;13.496;2023-10-31T00:51:30;3.38;;;3.00;;
26696;SDS011;14312;52.614;13.496;2023-10-31T00:54:16;3.38;;;3.08;;
26696;SDS011;14312;52.614;13.496;2023-10-31T00:57:02;3.47;;;2.53;;
26696;SDS011;14312;52.614;13.496;2023-10-31T00:59:48;3.00;;;2.35;;
26696;SDS011;14312;52.614;13.496;2023-10-31T01:02:34;3.00;;;2.50;;
26696;SDS011;14312;52.614;13.496;2023-10-31T01:05:20;5.50;;;2.22;;
26696;SDS011;14312;52.614;13.496;2023-10-31T01:08:06;2.92;;;2.60;;
26696;SDS011;14312;52.614;13.496;2023-10-31T01:10:52;3.30;;;3.00;;
26696;SDS011;14312;52.614;13.496;2023-10-31T01:13:38;3.65;;;3.28;;
26696;SDS011;14312;52.614;13.496;2023-10-31T01:16:24;3.17;;;2.97;;
26696;SDS011;14312;52.614;13.496;2023-10-31T01:19:10;2.80;;;2.50;;
26696;SDS011;14312;52.614;13.496;2023-10-31T01:21:56;3.42;;;2.47;;
26696;SDS011;14312;52.614;13.496;2023-10-31T01:24:42;2.95;;;2.65;;
26696;SDS011;14312;52.614;13.496;2023-10-31T01:27:28;2.97;;;2.40;;
26696;SDS011;14312;52.614;13.496;2023-10-31T01:30:14;3.30;;;2.47;;
26696;SDS011;14312;52.614;13.496;2023-10-31T01:33:00;3.10;;;2.30;;
26696;SDS011;14312;52.614;13.496;2023-10-31T01:35:47;2.72;;;2.33;;
26696;SDS011;14312;52.614;13.496;2023-10-31T01:38:33;2.45;;;2.25;;
26696;SDS011;14312;52.614;13.496;2023-10-31T01:41:19;2.35;;;2.15;;
26696;SDS011;14312;52.614;13.496;2023-10-31T01:44:05;3.17;;;2.22;;
26696;SDS011;14312;52.614;13.496;2023-10-31T01:46:52;2.85;;;2.55;;
26696;SDS011;14312;52.614;13.496;2023-10-31T01:49:38;3.13;;;2.58;;
26696;SDS011;14312;52.614;13.496;2023-10-31T01:52:24;3.30;;;2.70;;
26696;SDS011;14312;52.614;13.496;2023-10-31T01:55:20;2.53;;;2.33;;
26696;SDS011;14312;52.614;13.496;2023-10-31T01:58:07;2.75;;;2.55;;
26696;SDS011;14312;52.614;13.496;2023-10-31T02:00:54;3.03;;;2.58;;
26696;SDS011;14312;52.614;13.496;2023-10-31T02:03:41;2.20;;;2.00;;
26696;SDS011;14312;52.614;13.496;2023-10-31T02:06:27;2.50;;;2.30;;
26696;SDS011;14312;52.614;13.496;2023-10-31T02:09:15;2.92;;;2.65;;
26696;SDS011;14312;52.614;13.496;2023-10-31T02:12:01;2.83;;;2.58;;
26696;SDS011;14312;52.614;13.496;2023-10-31T02:14:47;2.92;;;2.60;;
26696;SDS011;14312;52.614;13.496;2023-10-31T02:17:33;2.90;;;2.70;;
26696;SDS011;14312;52.614;13.496;2023-10-31T02:20:19;2.58;;;2.38;;
26696;SDS011;14312;52.614;13.496;2023-10-31T02:23:05;2.83;;;2.50;;
26696;SDS011;14312;52.614;13.496;2023-10-31T02:25:51;2.95;;;2.38;;
26696;SDS011;14312;52.614;13.496;2023-10-31T02:28:38;2.90;;;2.60;;
26696;SDS011;14312;52.614;13.496;2023-10-31T02:31:24;4.40;;;2.70;;
26696;SDS011;14312;52.614;13.496;2023-10-31T02:34:10;2.60;;;2.33;;
26696;SDS011;14312;52.614;13.496;2023-10-31T02:36:57;2.53;;;2.33;;
26696;SDS011;14312;52.614;13.496;2023-10-31T02:39:43;4.53;;;2.55;;
26696;SDS011;14312;52.614;13.496;2023-10-31T02:42:29;2.50;;;2.22;;
26696;SDS011;14312;52.614;13.496;2023-10-31T02:45:15;3.58;;;2.60;;
26696;SDS011;14312;52.614;13.496;2023-10-31T02:48:01;2.72;;;2.45;;
26696;SDS011;14312;52.614;13.496;2023-10-31T02:50:47;2.42;;;2.20;;
26696;SDS011;14312;52.614;13.496;2023-10-31T02:53:33;3.00;;;2.70;;
26696;SDS011;14312;52.614;13.496;2023-10-31T02:56:20;4.00;;;2.95;;
26696;SDS011;14312;52.614;13.496;2023-10-31T02:59:06;3.20;;;2.90;;
26696;SDS011;14312;52.614;13.496;2023-10-31T03:01:52;4.05;;;3.03;;
26696;SDS011;14312;52.614;13.496;2023-10-31T03:04:38;3.65;;;3.00;;
26696;SDS011;14312;52.614;13.496;2023-10-31T03:07:24;3.65;;;2.80;;
26696;SDS011;14312;52.614;13.496;2023-10-31T03:10:11;2.72;;;2.53;;
26696;SDS011;14312;52.614;13.496;2023-10-31T03:12:57;7.07;;;2.80;;
26696;SDS011;14312;52.614;13.496;2023-10-31T03:15:43;3.20;;;2.90;;
26696;SDS011;14312;52.614;13.496;2023-10-31T03:18:29;3.55;;;2.67;;
26696;SDS011;14312;52.614;13.496;2023-10-31T03:21:16;3.40;;;3.10;;
26696;SDS011;14312;52.614;13.496;2023-10-31T03:24:02;2.53;;;2.28;;
26696;SDS011;14312;52.614;13.496;2023-10-31T03:26:48;2.60;;;2.40;;
26696;SDS011;14312;52.614;13.496;2023-10-31T03:29:34;3.30;;;3.00;;
26696;SDS011;14312;52.614;13.496;2023-10-31T03:32:20;3.85;;;2.65;;
26696;SDS011;14312;52.614;13.496;2023-10-31T03:35:06;2.97;;;2.67;;
26696;SDS011;14312;52.614;13.496;2023-10-31T03:37:52;3.72;;;3.03;;
26696;SDS011;14312;52.614;13.496;2023-10-31T03:40:38;3.65;;;3.05;;
26696;SDS011;14312;52.614;13.496;2023-10-31T03:43:25;3.17;;;2.95;;
26696;SDS011;14312;52.614;13.496;2023-10-31T03:46:11;2.90;;;2.70;;
26696;SDS011;14312;52.614;13.496;2023-10-31T03:48:57;3.38;;;2.83;;
26696;SDS011;14312;52.614;13.496;2023-10-31T03:51:43;2.95;;;2.75;;
26696;SDS011;14312;52.614;13.496;2023-10-31T03:54:29;3.50;;;3.20;;
26696;SDS011;14312;52.614;13.496;2023-10-31T03:57:15;3.55;;;3.25;;
26696;SDS011;14312;52.614;13.496;2023-10-31T04:00:01;3.70;;;3.40;;
26696;SDS011;14312;52.614;13.496;2023-10-31T04:02:50;3.30;;;3.00;;
26696;SDS011;14312;52.614;13.496;2023-10-31T04:05:36;2.63;;;2.42;;
26696;SDS011;14312;52.614;13.496;2023-10-31T04:08:23;2.90;;;2.67;;
26696;SDS011;14312;52.614;13.496;2023-10-31T04:11:09;3.63;;;2.88;;
26696;SDS011;14312;52.614;13.496;2023-10-31T04:13:55;4.38;;;2.90;;
26696;SDS011;14312;52.614;13.496;2023-10-31T04:16:41;2.78;;;2.55;;
26696;SDS011;14312;52.614;13.496;2023-10-31T04:19:31;3.05;;;2.70;;
26696;SDS011;14312;52.614;13.496;2023-10-31T04:22:17;3.42;;;2.85;;
26696;SDS011;14312;52.614;13.496;2023-10-31T04:25:04;4.05;;;3.25;;
26696;SDS011;14312;52.614;13.496;2023-10-31T04:27:50;3.40;;;3.10;;
26696;SDS011;14312;52.614;13.496;2023-10-31T04:30:36;3.85;;;3.33;;
26696;SDS011;14312;52.614;13.496;2023-10-31T04:33:22;3.28;;;3.08;;
26696;SDS011;14312;52.614;13.496;2023-10-31T04:36:08;5.13;;;3.00;;
26696;SDS011;14312;52.614;13.496;2023-10-31T04:38:55;3.25;;;2.97;;
26696;SDS011;14312;52.614;13.496;2023-10-31T04:41:41;3.30;;;3.00;;
26696;SDS011;14312;52.614;13.496;2023-10-31T04:44:27;3.53;;;3.22;;
26696;SDS011;14312;52.614;13.496;2023-10-31T04:47:13;3.63;;;3.20;;
26696;SDS011;14312;52.614;13.496;2023-10-31T04:49:59;4.13;;;3.55;;
26696;SDS011;14312;52.614;13.496;2023-10-31T04:52:46;4.40;;;4.00;;
26696;SDS011;14312;52.614;13.496;2023-10-31T04:55:31;4.13;;;3.50;;
26696;SDS011;14312;52.614;13.496;2023-10-31T04:58:17;4.53;;;3.47;;
26696;SDS011;14312;52.614;13.496;2023-10-31T05:01:08;3.53;;;3.22;;
26696;SDS011;14312;52.614;13.496;2023-10-31T05:03:58;5.13;;;3.90;;
26696;SDS011;14312;52.614;13.496;2023-10-31T05:06:44;3.35;;;3.05;;
26696;SDS011;14312;52.614;13.496;2023-10-31T05:09:30;4.72;;;3.30;;
26696;SDS011;14312;52.614;13.496;2023-10-31T05:12:16;4.90;;;4.38;;
26696;SDS011;14312;52.614;13.496;2023-10-31T05:15:02;3.90;;;3.50;;
26696;SDS011;14312;52.614;13.496;2023-10-31T05:17:49;4.32;;;3.92;;
26696;SDS011;14312;52.614;13.496;2023-10-31T05:20:35;4.35;;;3.95;;
26696;SDS011;14312;52.614;13.496;2023-10-31T05:23:21;3.78;;;3.47;;
26696;SDS011;14312;52.614;13.496;2023-10-31T05:26:07;3.70;;;3.40;;
26696;SDS011;14312;52.614;13.496;2023-10-31T05:28:53;4.45;;;3.83;;
26696;SDS011;14312;52.614;13.496;2023-10-31T05:31:39;3.92;;;3.63;;
26696;SDS011;14312;52.614;13.496;2023-10-31T05:34:27;4.20;;;3.72;;
26696;SDS011;14312;52.614;13.496;2023-10-31T05:37:13;3.63;;;3.33;;
26696;SDS011;14312;52.614;13.496;2023-10-31T05:39:59;5.00;;;3.90;;
26696;SDS011;14312;52.614;13.496;2023-10-31T05:42:47;3.88;;;3.47;;
26696;SDS011;14312;52.614;13.496;2023-10-31T05:45:33;3.95;;;3.33;;
26696;SDS011;14312;52.614;13.496;2023-10-31T05:48:19;3.10;;;2.83;;
26696;SDS011;14312;52.614;13.496;2023-10-31T05:51:15;3.08;;;2.83;;
26696;SDS011;14312;52.614;13.496;2023-10-31T05:54:03;2.75;;;2.55;;
26696;SDS011;14312;52.614;13.496;2023-10-31T05:56:50;2.80;;;2.58;;
26696;SDS011;14312;52.614;13.496;2023-10-31T05:59:36;2.72;;;2.38;;
26696;SDS011;14312;52.614;13.496;2023-10-31T06:02:22;2.92;;;2.65;;
26696;SDS011;14312;52.614;13.496;2023-10-31T06:05:08;3.08;;;2.38;;
26696;SDS011;14312;52.614;13.496;2023-10-31T06:07:54;2.90;;;2.70;;
26696;SDS011;14312;52.614;13.496;2023-10-31T06:10:41;3.08;;;2.60;;
26696;SDS011;14312;52.614;13.496;2023-10-31T06:13:27;2.67;;;2.42;;
26696;SDS011;14312;52.614;13.496;2023-10-31T06:16:13;3.00;;;2.75;;
26696;SDS011;14312;52.614;13.496;2023-10-31T06:18:59;2.78;;;2.58;;
26696;SDS011;14312;52.614;13.496;2023-10-31T06:21:46;2.28;;;2.17;;
26696;SDS011;14312;52.614;13.496;2023-10-31T06:24:32;2.40;;;2.20;;
26696;SDS011;14312;52.614;13.496;2023-10-31T06:27:18;3.15;;;2.88;;
26696;SDS011;14312;52.614;13.496;2023-10-31T06:30:04;2.63;;;2.42;;
26696;SDS011;14312;52.614;13.496;2023-10-31T06:32:51;2.97;;;2.78;;
26696;SDS011;14312;52.614;13.496;2023-10-31T06:35:38;3.22;;;2.97;;
26696;SDS011;14312;52.614;13.496;2023-10-31T06:38:24;3.30;;;3.00;;
26696;SDS011;14312;52.614;13.496;2023-10-31T06:41:10;3.95;;;3.65;;
26696;SDS011;14312;52.614;13.496;2023-10-31T06:43:57;4.32;;;3.92;;
26696;SDS011;14312;52.614;13.496;2023-10-31T06:46:43;4.40;;;4.00;;
26696;SDS011;14312;52.614;13.496;2023-10-31T06:49:29;4.80;;;4.30;;
26696;SDS011;14312;52.614;13.496;2023-10-31T06:52:15;4.88;;;4.40;;
26696;SDS011;14312;52.614;13.496;2023-10-31T06:55:01;4.70;;;4.30;;
26696;SDS011;14312;52.614;13.496;2023-10-31T06:57:48;4.35;;;4.05;;
26696;SDS011;14312;52.614;13.496;2023-10-31T07:00:34;4.93;;;4.47;;
26696;SDS011;14312;52.614;13.496;2023-10-31T07:03:20;4.30;;;3.90;;
26696;SDS011;14312;52.614;13.496;2023-10-31T07:06:06;4.38;;;3.97;;
26696;SDS011;14312;52.614;13.496;2023-10-31T07:08:52;4.00;;;3.70;;
26696;SDS011;14312;52.614;13.496;2023-10-31T07:11:38;3.75;;;3.10;;
26696;SDS011;14312;52.614;13.496;2023-10-31T07:14:24;4.32;;;4.03;;
26696;SDS011;14312;52.614;13.496;2023-10-31T07:17:10;4.38;;;4.07;;
26696;SDS011;14312;52.614;13.496;2023-10-31T07:19:56;4.28;;;3.83;;
26696;SDS011;14312;52.614;13.496;2023-10-31T07:22:43;4.00;;;3.65;;
26696;SDS011;14312;52.614;13.496;2023-10-31T07:25:29;3.72;;;3.45;;
26696;SDS011;14312;52.614;13.496;2023-10-31T07:28:15;4.15;;;3.75;;
26696;SDS011;14312;52.614;13.496;2023-10-31T07:31:03;3.78;;;3.47;;
26696;SDS011;14312;52.614;13.496;2023-10-31T07:33:50;2.80;;;2.60;;
26696;SDS011;14312;52.614;13.496;2023-10-31T07:36:36;3.03;;;2.83;;
26696;SDS011;14312;52.614;13.496;2023-10-31T07:39:23;2.40;;;2.20;;
26696;SDS011;14312;52.614;13.496;2023-10-31T07:42:09;2.20;;;2.00;;
26696;SDS011;14312;52.614;13.496;2023-10-31T07:44:55;2.05;;;1.88;;
26696;SDS011;14312;52.614;13.496;2023-10-31T07:47:41;2.10;;;1.90;;
26696;SDS011;14312;52.614;13.496;2023-10-31T07:50:27;2.25;;;2.05;;
26696;SDS011;14312;52.614;13.496;2023-10-31T07:53:13;2.17;;;1.90;;
26696;SDS011;14312;52.614;13.496;2023-10-31T07:55:59;2.47;;;1.70;;
26696;SDS011;14312;52.614;13.496;2023-10-31T07:58:45;1.85;;;1.75;;
26696;SDS011;14312;52.614;13.496;2023-10-31T08:01:31;2.28;;;1.70;;
26696;SDS011;14312;52.614;13.496;2023-10-31T08:04:17;2.08;;;1.90;;
26696;SDS011;14312;52.614;13.496;2023-10-31T08:07:03;1.95;;;1.65;;
26696;SDS011;14312;52.614;13.496;2023-10-31T08:09:49;1.65;;;1.55;;
26696;SDS011;14312;52.614;13.496;2023-10-31T08:12:36;1.60;;;1.48;;
26696;SDS011;14312;52.614;13.496;2023-10-31T08:15:21;2.22;;;1.83;;
26696;SDS011;14312;52.614;13.496;2023-10-31T08:18:08;1.60;;;1.50;;
26696;SDS011;14312;52.614;13.496;2023-10-31T08:20:54;1.45;;;1.35;;
26696;SDS011;14312;52.614;13.496;2023-10-31T08:23:40;1.50;;;1.40;;
26696;SDS011;14312;52.614;13.496;2023-10-31T08:26:26;1.75;;;1.15;;
26696;SDS011;14312;52.614;13.496;2023-10-31T08:29:12;1.02;;;1.00;;
26696;SDS011;14312;52.614;13.496;2023-10-31T08:31:58;1.30;;;1.20;;
26696;SDS011;14312;52.614;13.496;2023-10-31T08:34:44;3.50;;;1.38;;
26696;SDS011;14312;52.614;13.496;2023-10-31T08:37:30;1.30;;;1.00;;
26696;SDS011;14312;52.614;13.496;2023-10-31T08:40:16;1.02;;;0.98;;
26696;SDS011;14312;52.614;13.496;2023-10-31T08:43:02;0.93;;;0.93;;
26696;SDS011;14312;52.614;13.496;2023-10-31T08:45:50;0.80;;;0.80;;
26696;SDS011;14312;52.614;13.496;2023-10-31T08:48:35;0.88;;;0.88;;
26696;SDS011;14312;52.614;13.496;2023-10-31T08:51:21;0.90;;;0.90;;
26696;SDS011;14312;52.614;13.496;2023-10-31T08:54:09;0.80;;;0.80;;
26696;SDS011;14312;52.614;13.496;2023-10-31T08:56:55;1.23;;;0.90;;
26696;SDS011;14312;52.614;13.496;2023-10-31T08:59:41;4.32;;;1.00;;
26696;SDS011;14312;52.614;13.496;2023-10-31T09:02:27;2.20;;;1.10;;
26696;SDS011;14312;52.614;13.496;2023-10-31T09:05:14;0.90;;;0.90;;
26696;SDS011;14312;52.614;13.496;2023-10-31T09:08:02;0.80;;;0.80;;
26696;SDS011;14312;52.614;13.496;2023-10-31T09:10:49;0.80;;;0.80;;
26696;SDS011;14312;52.614;13.496;2023-10-31T09:13:35;0.80;;;0.80;;
26696;SDS011;14312;52.614;13.496;2023-10-31T09:16:21;1.23;;;0.90;;
26696;SDS011;14312;52.614;13.496;2023-10-31T09:19:07;0.73;;;0.73;;
26696;SDS011;14312;52.614;13.496;2023-10-31T09:21:53;1.05;;;0.90;;
26696;SDS011;14312;52.614;13.496;2023-10-31T09:24:39;2.88;;;0.70;;
26696;SDS011;14312;52.614;13.496;2023-10-31T09:27:25;1.17;;;0.95;;
26696;SDS011;14312;52.614;13.496;2023-10-31T09:30:12;0.80;;;0.80;;
26696;SDS011;14312;52.614;13.496;2023-10-31T09:32:58;1.08;;;0.90;;
26696;SDS011;14312;52.614;13.496;2023-10-31T09:35:44;1.00;;;1.00;;
26696;SDS011;14312;52.614;13.496;2023-10-31T09:38:30;1.83;;;0.73;;
26696;SDS011;14312;52.614;13.496;2023-10-31T09:41:16;0.80;;;0.80;;
26696;SDS011;14312;52.614;13.496;2023-10-31T09:44:02;0.80;;;0.68;;
26696;SDS011;14312;52.614;13.496;2023-10-31T09:46:50;0.73;;;0.70;;
26696;SDS011;14312;52.614;13.496;2023-10-31T09:49:38;3.72;;;0.80;;
26696;SDS011;14312;52.614;13.496;2023-10-31T09:52:24;5.45;;;0.95;;
26696;SDS011;14312;52.614;13.496;2023-10-31T09:55:10;1.13;;;0.90;;
26696;SDS011;14312;52.614;13.496;2023-10-31T09:57:57;1.95;;;0.75;;
26696;SDS011;14312;52.614;13.496;2023-10-31T10:00:43;0.70;;;0.70;;
26696;SDS011;14312;52.614;13.496;2023-10-31T10:03:29;0.88;;;0.88;;
26696;SDS011;14312;52.614;13.496;2023-10-31T10:06:15;0.80;;;0.80;;
26696;SDS011;14312;52.614;13.496;2023-10-31T10:09:01;1.95;;;0.70;;
26696;SDS011;14312;52.614;13.496;2023-10-31T10:11:52;0.93;;;0.82;;
26696;SDS011;14312;52.614;13.496;2023-10-31T10:14:40;0.80;;;0.80;;
26696;SDS011;14312;52.614;13.496;2023-10-31T10:17:27;1.05;;;0.90;;
26696;SDS011;14312;52.614;13.496;2023-10-31T10:20:13;1.58;;;0.95;;
26696;SDS011;14312;52.614;13.496;2023-10-31T10:23:02;0.88;;;0.88;;
26696;SDS011;14312;52.614;13.496;2023-10-31T10:25:49;1.65;;;1.08;;
26696;SDS011;14312;52.614;13.496;2023-10-31T10:28:35;1.38;;;1.02;;
26696;SDS011;14312;52.614;13.496;2023-10-31T10:31:23;1.05;;;1.00;;
26696;SDS011;14312;52.614;13.496;2023-10-31T10:34:09;1.25;;;1.00;;
26696;SDS011;14312;52.614;13.496;2023-10-31T10:36:55;1.30;;;1.00;;
26696;SDS011;14312;52.614;13.496;2023-10-31T10:39:42;2.25;;;1.10;;
26696;SDS011;14312;52.614;13.496;2023-10-31T10:42:35;1.33;;;1.10;;
26696;SDS011;14312;52.614;13.496;2023-10-31T10:45:31;1.20;;;1.10;;
26696;SDS011;14312;52.614;13.496;2023-10-31T10:48:17;1.20;;;1.10;;
26696;SDS011;14312;52.614;13.496;2023-10-31T10:51:13;2.53;;;1.20;;
26696;SDS011;14312;52.614;13.496;2023-10-31T11:00:31;1.20;;;1.10;;
26696;SDS011;14312;52.614;13.496;2023-10-31T11:03:17;3.55;;;1.38;;
26696;SDS011;14312;52.614;13.496;2023-10-31T11:06:06;1.30;;;1.20;;
26696;SDS011;14312;52.614;13.496;2023-10-31T11:08:52;1.20;;;1.10;;
26696;SDS011;14312;52.614;13.496;2023-10-31T11:11:39;1.50;;;1.40;;
26696;SDS011;14312;52.614;13.496;2023-10-31T11:14:26;1.35;;;1.25;;
26696;SDS011;14312;52.614;13.496;2023-10-31T11:17:24;1.45;;;1.30;;
26696;SDS011;14312;52.614;13.496;2023-10-31T11:20:12;1.10;;;1.10;;
26696;SDS011;14312;52.614;13.496;2023-10-31T11:23:00;1.95;;;1.50;;
26696;SDS011;14312;52.614;13.496;2023-10-31T11:25:50;1.60;;;1.20;;
26696;SDS011;14312;52.614;13.496;2023-10-31T11:28:41;1.58;;;1.48;;
26696;SDS011;14312;52.614;13.496;2023-10-31T11:31:28;1.73;;;1.50;;
26696;SDS011;14312;52.614;13.496;2023-10-31T11:34:18;3.55;;;1.58;;
26696;SDS011;14312;52.614;13.496;2023-10-31T11:40:20;1.50;;;1.40;;
26696;SDS011;14312;52.614;13.496;2023-10-31T11:43:08;1.50;;;1.40;;
26696;SDS011;14312;52.614;13.496;2023-10-31T11:45:54;3.58;;;1.80;;
26696;SDS011;14312;52.614;13.496;2023-10-31T11:48:49;2.25;;;2.05;;
26696;SDS011;14312;52.614;13.496;2023-10-31T11:51:38;2.38;;;1.75;;
26696;SDS011;14312;52.614;13.496;2023-10-31T11:54:24;1.98;;;1.88;;
26696;SDS011;14312;52.614;13.496;2023-10-31T11:57:25;1.95;;;1.60;;
26696;SDS011;14312;52.614;13.496;2023-10-31T12:00:20;1.70;;;1.60;;
26696;SDS011;14312;52.614;13.496;2023-10-31T12:03:07;2.45;;;1.42;;
26696;SDS011;14312;52.614;13.496;2023-10-31T12:05:57;2.05;;;1.60;;
26696;SDS011;14312;52.614;13.496;2023-10-31T12:08:45;1.30;;;1.17;;
26696;SDS011;14312;52.614;13.496;2023-10-31T12:11:37;1.40;;;1.30;;
26696;SDS011;14312;52.614;13.496;2023-10-31T12:14:30;1.80;;;1.40;;
26696;SDS011;14312;52.614;13.496;2023-10-31T12:17:16;1.35;;;1.20;;
26696;SDS011;14312;52.614;13.496;2023-10-31T12:20:06;1.02;;;1.00;;
26696;SDS011;14312;52.614;13.496;2023-10-31T12:23:02;1.13;;;0.90;;
26696;SDS011;14312;52.614;13.496;2023-10-31T12:25:50;1.30;;;1.20;;
26696;SDS011;14312;52.614;13.496;2023-10-31T12:28:36;1.10;;;1.00;;
26696;SDS011;14312;52.614;13.496;2023-10-31T12:31:23;1.10;;;1.00;;
26696;SDS011;14312;52.614;13.496;2023-10-31T12:34:09;1.77;;;1.10;;
26696;SDS011;14312;52.614;13.496;2023-10-31T12:36:55;0.98;;;0.98;;
26696;SDS011;14312;52.614;13.496;2023-10-31T12:39:44;0.90;;;0.90;;
26696;SDS011;14312;52.614;13.496;2023-10-31T12:42:35;0.80;;;0.80;;
26696;SDS011;14312;52.614;13.496;2023-10-31T12:45:22;0.95;;;0.90;;
26696;SDS011;14312;52.614;13.496;2023-10-31T12:48:09;1.00;;;0.93;;
26696;SDS011;14312;52.614;13.496;2023-10-31T12:51:07;1.23;;;0.90;;
26696;SDS011;14312;52.614;13.496;2023-10-31T12:53:54;0.95;;;0.90;;
26696;SDS011;14312;52.614;13.496;2023-10-31T12:56:41;2.28;;;0.80;;
26696;SDS011;14312;52.614;13.496;2023-10-31T12:59:27;0.88;;;0.82;;
26696;SDS011;14312;52.614;13.496;2023-10-31T13:02:16;0.80;;;0.80;;
26696;SDS011;14312;52.614;13.496;2023-10-31T13:07:59;0.80;;;0.80;;
26696;SDS011;14312;52.614;13.496;2023-10-31T13:10:46;1.05;;;0.95;;
26696;SDS011;14312;52.614;13.496;2023-10-31T13:13:32;2.05;;;0.90;;
26696;SDS011;14312;52.614;13.496;2023-10-31T13:16:18;1.00;;;0.90;;
26696;SDS011;14312;52.614;13.496;2023-10-31T13:19:04;0.90;;;0.90;;
26696;SDS011;14312;52.614;13.496;2023-10-31T13:21:50;0.70;;;0.70;;
26696;SDS011;14312;52.614;13.496;2023-10-31T13:24:36;1.15;;;0.90;;
26696;SDS011;14312;52.614;13.496;2023-10-31T13:27:22;1.00;;;0.90;;
26696;SDS011;14312;52.614;13.496;2023-10-31T13:30:09;0.75;;;0.75;;
26696;SDS011;14312;52.614;13.496;2023-10-31T13:32:56;0.77;;;0.77;;
26696;SDS011;14312;52.614;13.496;2023-10-31T13:35:43;0.85;;;0.60;;
26696;SDS011;14312;52.614;13.496;2023-10-31T13:38:29;0.65;;;0.60;;
26696;SDS011;14312;52.614;13.496;2023-10-31T13:41:15;0.47;;;0.47;;
26696;SDS011;14312;52.614;13.496;2023-10-31T13:44:01;1.05;;;0.95;;
26696;SDS011;14312;52.614;13.496;2023-10-31T13:46:49;0.70;;;0.70;;
26696;SDS011;14312;52.614;13.496;2023-10-31T13:49:35;1.05;;;0.60;;
26696;SDS011;14312;52.614;13.496;2023-10-31T13:52:22;0.60;;;0.60;;
26696;SDS011;14312;52.614;13.496;2023-10-31T13:55:08;0.63;;;0.63;;
26696;SDS011;14312;52.614;13.496;2023-10-31T13:57:54;0.73;;;0.57;;
26696;SDS011;14312;52.614;13.496;2023-10-31T14:00:43;0.50;;;0.50;;
26696;SDS011;14312;52.614;13.496;2023-10-31T14:03:31;0.82;;;0.70;;
26696;SDS011;14312;52.614;13.496;2023-10-31T14:06:16;1.58;;;0.60;;
26696;SDS011;14312;52.614;13.496;2023-10-31T14:09:03;0.75;;;0.75;;
26696;SDS011;14312;52.614;13.496;2023-10-31T14:11:50;0.75;;;0.60;;
26696;SDS011;14312;52.614;13.496;2023-10-31T14:14:36;1.30;;;0.70;;
26696;SDS011;14312;52.614;13.496;2023-10-31T14:17:22;0.70;;;0.70;;
26696;SDS011;14312;52.614;13.496;2023-10-31T14:20:08;0.57;;;0.57;;
26696;SDS011;14312;52.614;13.496;2023-10-31T14:22:55;0.50;;;0.50;;
26696;SDS011;14312;52.614;13.496;2023-10-31T14:25:41;1.85;;;0.60;;
26696;SDS011;14312;52.614;13.496;2023-10-31T14:28:27;0.50;;;0.50;;
26696;SDS011;14312;52.614;13.496;2023-10-31T14:31:14;0.70;;;0.70;;
26696;SDS011;14312;52.614;13.496;2023-10-31T14:34:00;2.17;;;0.70;;
26696;SDS011;14312;52.614;13.496;2023-10-31T14:36:46;0.68;;;0.68;;
26696;SDS011;14312;52.614;13.496;2023-10-31T14:39:32;0.60;;;0.60;;
26696;SDS011;14312;52.614;13.496;2023-10-31T14:42:19;0.70;;;0.70;;
26696;SDS011;14312;52.614;13.496;2023-10-31T14:45:05;0.55;;;0.55;;
26696;SDS011;14312;52.614;13.496;2023-10-31T14:47:52;0.68;;;0.68;;
26696;SDS011;14312;52.614;13.496;2023-10-31T14:50:38;0.70;;;0.70;;
26696;SDS011;14312;52.614;13.496;2023-10-31T14:53:24;0.93;;;0.93;;
26696;SDS011;14312;52.614;13.496;2023-10-31T14:56:10;1.63;;;0.68;;
26696;SDS011;14312;52.614;13.496;2023-10-31T14:58:56;1.20;;;0.80;;
26696;SDS011;14312;52.614;13.496;2023-10-31T15:01:42;0.68;;;0.63;;
26696;SDS011;14312;52.614;13.496;2023-10-31T15:04:29;0.73;;;0.73;;
26696;SDS011;14312;52.614;13.496;2023-10-31T15:07:15;0.60;;;0.60;;
26696;SDS011;14312;52.614;13.496;2023-10-31T15:10:01;0.70;;;0.70;;
26696;SDS011;14312;52.614;13.496;2023-10-31T15:12:48;0.65;;;0.50;;
26696;SDS011;14312;52.614;13.496;2023-10-31T15:15:34;0.82;;;0.50;;
26696;SDS011;14312;52.614;13.496;2023-10-31T15:18:18;0.65;;;0.65;;
26696;SDS011;14312;52.614;13.496;2023-10-31T15:21:05;0.93;;;0.80;;
26696;SDS011;14312;52.614;13.496;2023-10-31T15:23:51;0.77;;;0.77;;
26696;SDS011;14312;52.614;13.496;2023-10-31T15:26:37;0.70;;;0.70;;
26696;SDS011;14312;52.614;13.496;2023-10-31T15:29:24;1.70;;;0.82;;
26696;SDS011;14312;52.614;13.496;2023-10-31T15:32:10;1.17;;;0.80;;
26696;SDS011;14312;52.614;13.496;2023-10-31T15:34:56;0.70;;;0.70;;
26696;SDS011;14312;52.614;13.496;2023-10-31T15:37:42;0.77;;;0.77;;
26696;SDS011;14312;52.614;13.496;2023-10-31T15:40:28;1.02;;;0.90;;
26696;SDS011;14312;52.614;13.496;2023-10-31T15:43:14;0.90;;;0.90;;
26696;SDS011;14312;52.614;13.496;2023-10-31T15:46:00;0.93;;;0.93;;
26696;SDS011;14312;52.614;13.496;2023-10-31T15:48:46;1.13;;;0.90;;
26696;SDS011;14312;52.614;13.496;2023-10-31T15:51:32;1.13;;;0.90;;
26696;SDS011;14312;52.614;13.496;2023-10-31T15:54:18;0.88;;;0.88;;
26696;SDS011;14312;52.614;13.496;2023-10-31T15:57:05;0.80;;;0.80;;
26696;SDS011;14312;52.614;13.496;2023-10-31T15:59:52;1.17;;;1.00;;
26696;SDS011;14312;52.614;13.496;2023-10-31T16:02:38;0.95;;;0.85;;
26696;SDS011;14312;52.614;13.496;2023-10-31T16:05:24;0.95;;;0.90;;
26696;SDS011;14312;52.614;13.496;2023-10-31T16:08:10;0.70;;;0.70;;
26696;SDS011;14312;52.614;13.496;2023-10-31T16:10:56;0.90;;;0.90;;
26696;SDS011;14312;52.614;13.496;2023-10-31T16:13:42;0.90;;;0.90;;
26696;SDS011;14312;52.614;13.496;2023-10-31T16:16:29;1.60;;;1.10;;
26696;SDS011;14312;52.614;13.496;2023-10-31T16:19:15;1.13;;;1.02;;
